Time;durP1;ratioP1;P1;durP2;ratioP2;P2;SDS_P1;SDS_P2;PMS_P1;PMS_P2;Temp;Humidity;BMP_temperature;BMP_pressure;BME280_temperature;BME280_humidity;BME280_pressure;Samples;Min_cycle;Max_cycle;Signal;HPM_P1;HPM_P2
2023/12/19 00:00:32;;;;;;;16.00;9.87;;;3.10;99.90;;;;;;958102;146;27287;-84
2023/12/19 00:02:59;;;;;;;9.97;8.10;;;3.10;99.90;;;;;;955434;147;27417;-88
2023/12/19 00:05:25;;;;;;;9.00;7.93;;;3.10;99.90;;;;;;937886;149;27395;-87
2023/12/19 00:07:52;;;;;;;10.43;8.20;;;3.10;99.90;;;;;;944542;149;27336;-87
2023/12/19 00:10:19;;;;;;;10.30;8.33;;;3.10;99.90;;;;;;942267;150;27432;-87
2023/12/19 00:12:45;;;;;;;10.37;8.77;;;3.10;99.90;;;;;;953050;148;27706;-83
2023/12/19 00:15:12;;;;;;;11.53;9.43;;;3.10;99.90;;;;;;951482;148;27361;-87
2023/12/19 00:17:39;;;;;;;11.63;9.20;;;3.10;99.90;;;;;;950933;148;27306;-88
2023/12/19 00:20:05;;;;;;;9.30;8.37;;;3.10;99.90;;;;;;951368;148;27296;-86
2023/12/19 00:22:31;;;;;;;9.27;8.07;;;3.10;99.90;;;;;;948141;147;27308;-88
2023/12/19 00:24:58;;;;;;;9.80;8.73;;;3.10;99.90;;;;;;952749;147;27513;-86
2023/12/19 00:27:25;;;;;;;10.57;8.77;;;3.10;99.90;;;;;;950454;148;28764;-88
2023/12/19 00:29:51;;;;;;;9.07;8.17;;;3.10;99.90;;;;;;949260;148;27377;-87
2023/12/19 00:32:18;;;;;;;9.53;8.37;;;3.10;99.90;;;;;;950097;148;27316;-87
2023/12/19 00:34:44;;;;;;;10.10;8.70;;;3.10;99.90;;;;;;948803;148;27459;-86
2023/12/19 00:37:12;;;;;;;9.10;8.20;;;3.10;99.90;;;;;;949124;148;27674;-88
2023/12/19 00:39:38;;;;;;;10.50;9.17;;;3.10;99.90;;;;;;948874;148;27334;-87
2023/12/19 00:42:04;;;;;;;9.70;8.73;;;3.10;99.90;;;;;;949619;148;27304;-87
2023/12/19 00:44:31;;;;;;;9.23;8.27;;;3.10;99.90;;;;;;954403;147;27305;-85
2023/12/19 00:46:57;;;;;;;9.77;8.30;;;3.10;99.90;;;;;;946787;148;27345;-88
2023/12/19 00:49:24;;;;;;;9.50;8.17;;;3.20;99.90;;;;;;948621;148;27417;-87
2023/12/19 00:51:50;;;;;;;9.23;8.33;;;3.20;99.90;;;;;;949988;148;27294;-88
2023/12/19 00:54:18;;;;;;;9.30;8.30;;;3.20;99.90;;;;;;948294;148;27306;-84
2023/12/19 00:56:44;;;;;;;7.97;7.20;;;3.20;99.90;;;;;;947506;148;27925;-81
2023/12/19 00:59:10;;;;;;;8.93;8.03;;;3.20;99.90;;;;;;951679;148;27243;-81
2023/12/19 01:01:37;;;;;;;9.73;8.73;;;3.20;99.90;;;;;;951046;148;27364;-81
2023/12/19 01:04:04;;;;;;;10.67;8.67;;;3.20;99.90;;;;;;949932;148;27318;-82
2023/12/19 01:09:06;;;;;;;9.60;8.70;;;3.20;99.90;;;;;;949655;144;87692;-85
2023/12/19 01:11:32;;;;;;;9.07;8.17;;;3.20;99.90;;;;;;930254;151;27852;-85
2023/12/19 01:13:59;;;;;;;9.80;8.87;;;3.20;99.90;;;;;;929591;151;27748;-85
2023/12/19 01:16:26;;;;;;;9.53;8.53;;;3.20;99.90;;;;;;954859;146;81351;-83
2023/12/19 01:18:52;;;;;;;8.90;7.70;;;3.20;99.90;;;;;;954577;147;27343;-83
2023/12/19 01:21:19;;;;;;;10.63;8.83;;;3.20;99.90;;;;;;956618;147;27341;-83
2023/12/19 01:23:45;;;;;;;10.57;9.37;;;3.20;99.90;;;;;;954273;146;27817;-84
2023/12/19 01:26:12;;;;;;;9.23;8.33;;;3.20;99.90;;;;;;957929;147;27372;-84
2023/12/19 01:28:39;;;;;;;9.73;8.70;;;3.20;99.90;;;;;;957458;147;27430;-84
2023/12/19 01:31:05;;;;;;;9.33;7.83;;;3.20;99.90;;;;;;926306;153;27465;-83
2023/12/19 01:33:32;;;;;;;10.60;8.87;;;3.20;99.90;;;;;;918868;153;27323;-84
2023/12/19 01:35:58;;;;;;;10.07;8.87;;;3.20;99.90;;;;;;956644;146;27287;-83
2023/12/19 01:38:25;;;;;;;10.87;9.27;;;3.20;99.90;;;;;;957166;147;27320;-83
2023/12/19 01:40:51;;;;;;;10.57;9.30;;;3.20;99.90;;;;;;954562;147;27433;-82
2023/12/19 01:43:19;;;;;;;11.40;9.00;;;3.30;99.90;;;;;;955742;146;27349;-83
2023/12/19 01:45:45;;;;;;;10.43;9.10;;;3.20;99.90;;;;;;956519;147;27431;-83
2023/12/19 01:48:11;;;;;;;10.30;8.80;;;3.20;99.90;;;;;;958409;146;27315;-84
2023/12/19 01:50:38;;;;;;;10.53;9.47;;;3.20;99.90;;;;;;956598;147;27364;-83
2023/12/19 01:53:04;;;;;;;10.20;8.80;;;3.20;99.90;;;;;;957408;147;27343;-83
2023/12/19 01:55:31;;;;;;;9.67;8.43;;;3.20;99.90;;;;;;955702;147;28613;-83
2023/12/19 01:57:59;;;;;;;9.77;8.80;;;3.20;99.90;;;;;;955968;147;27324;-84
2023/12/19 02:00:24;;;;;;;12.43;9.90;;;3.20;99.90;;;;;;956697;147;27399;-83
2023/12/19 02:02:53;;;;;;;9.57;8.57;;;3.10;99.90;;;;;;956222;147;27414;-82
2023/12/19 02:05:20;;;;;;;9.97;8.97;;;3.10;99.90;;;;;;956147;147;27310;-83
2023/12/19 02:07:46;;;;;;;10.00;9.00;;;3.00;99.90;;;;;;956813;147;27352;-83
2023/12/19 02:10:13;;;;;;;9.20;8.23;;;3.00;99.90;;;;;;919775;152;27414;-83
2023/12/19 02:12:40;;;;;;;10.90;9.80;;;2.90;99.90;;;;;;906392;154;27531;-83
2023/12/19 02:15:06;;;;;;;9.80;8.83;;;2.90;99.90;;;;;;947092;149;27345;-84
2023/12/19 02:17:33;;;;;;;10.67;9.43;;;2.80;99.90;;;;;;936496;151;27363;-83
2023/12/19 02:20:00;;;;;;;13.67;10.00;;;2.80;99.90;;;;;;936295;151;27438;-88
2023/12/19 02:22:26;;;;;;;11.03;9.07;;;2.70;99.90;;;;;;936569;151;27403;-86
2023/12/19 02:24:53;;;;;;;10.80;9.30;;;2.70;99.90;;;;;;935430;151;28379;-87
2023/12/19 02:27:19;;;;;;;12.93;9.50;;;2.60;99.90;;;;;;932960;151;27328;-87
2023/12/19 02:29:46;;;;;;;11.20;9.20;;;2.60;99.90;;;;;;936382;151;27405;-87
2023/12/19 02:32:12;;;;;;;11.03;9.30;;;2.60;99.90;;;;;;939063;150;27354;-87
2023/12/19 02:34:39;;;;;;;10.77;8.70;;;2.50;99.90;;;;;;934602;151;27390;-87
2023/12/19 02:37:05;;;;;;;10.43;9.33;;;2.40;99.90;;;;;;937105;151;27368;-88
2023/12/19 02:39:32;;;;;;;9.97;8.97;;;2.40;99.90;;;;;;936904;151;27879;-87
2023/12/19 02:41:59;;;;;;;10.30;9.13;;;2.40;99.90;;;;;;937768;151;27364;-87
2023/12/19 02:44:25;;;;;;;10.30;9.20;;;2.40;99.90;;;;;;938847;151;27381;-86
2023/12/19 02:46:52;;;;;;;11.83;9.07;;;2.30;99.90;;;;;;936504;151;27398;-88
2023/12/19 02:49:18;;;;;;;11.10;9.37;;;2.30;99.90;;;;;;933753;150;27371;-88
2023/12/19 02:51:45;;;;;;;9.33;8.33;;;2.30;99.90;;;;;;936985;151;27324;-87
2023/12/19 02:54:12;;;;;;;9.97;8.97;;;2.30;99.90;;;;;;938410;151;27327;-86
2023/12/19 02:56:38;;;;;;;9.23;8.33;;;2.30;99.90;;;;;;937552;151;27394;-86
2023/12/19 02:59:05;;;;;;;10.07;9.00;;;2.30;99.90;;;;;;937195;151;27471;-87
2023/12/19 03:01:31;;;;;;;11.20;9.10;;;2.20;99.90;;;;;;935566;149;27440;-87
2023/12/19 03:03:58;;;;;;;9.77;8.33;;;2.20;99.90;;;;;;937324;151;27331;-86
2023/12/19 03:06:25;;;;;;;11.80;9.27;;;2.20;99.90;;;;;;936600;151;27373;-82
2023/12/19 03:08:53;;;;;;;9.57;8.57;;;2.20;99.90;;;;;;935546;151;27495;-87
2023/12/19 03:11:18;;;;;;;10.97;9.53;;;2.20;99.90;;;;;;943794;150;27345;-87
2023/12/19 03:13:45;;;;;;;10.40;9.30;;;2.20;99.90;;;;;;925626;150;27313;-88
2023/12/19 03:16:11;;;;;;;10.10;9.10;;;2.10;99.90;;;;;;937736;150;28207;-83
2023/12/19 03:18:37;;;;;;;10.40;9.00;;;2.10;99.90;;;;;;935859;150;27369;-88
2023/12/19 03:21:04;;;;;;;11.83;9.67;;;2.10;99.90;;;;;;945161;149;27373;-88
2023/12/19 03:23:32;;;;;;;12.13;9.33;;;2.10;99.90;;;;;;947260;149;27329;-88
2023/12/19 03:25:57;;;;;;;10.63;9.53;;;2.10;99.90;;;;;;943713;149;27326;-87
2023/12/19 03:28:24;;;;;;;10.90;9.17;;;2.10;99.90;;;;;;946725;149;27347;-88
2023/12/19 03:30:51;;;;;;;9.03;8.13;;;2.10;99.90;;;;;;944914;149;27401;-79
2023/12/19 03:33:17;;;;;;;11.17;8.83;;;2.10;99.90;;;;;;942960;149;27327;-79
2023/12/19 03:35:44;;;;;;;9.53;8.53;;;2.10;99.90;;;;;;944717;149;27352;-80
2023/12/19 03:38:11;;;;;;;9.37;8.43;;;2.10;99.90;;;;;;947190;149;27281;-84
2023/12/19 03:40:37;;;;;;;9.70;8.70;;;2.20;99.90;;;;;;943723;149;27462;-81
2023/12/19 03:43:03;;;;;;;10.70;9.17;;;2.20;99.90;;;;;;944093;149;27345;-82
2023/12/19 03:45:30;;;;;;;9.30;8.40;;;2.20;99.90;;;;;;938448;150;27317;-82
2023/12/19 03:47:56;;;;;;;9.50;8.50;;;2.20;99.90;;;;;;946080;150;27292;-82
2023/12/19 03:50:23;;;;;;;10.97;8.10;;;2.30;99.90;;;;;;940431;150;27824;-83
2023/12/19 03:52:50;;;;;;;10.87;9.60;;;2.30;99.90;;;;;;942909;150;27491;-81
2023/12/19 03:55:16;;;;;;;10.10;8.77;;;2.40;99.90;;;;;;941256;149;27297;-82
2023/12/19 03:57:43;;;;;;;11.90;8.73;;;2.40;99.90;;;;;;943453;149;27357;-82
2023/12/19 04:00:09;;;;;;;10.43;8.50;;;2.40;99.90;;;;;;941758;149;27313;-84
2023/12/19 04:02:36;;;;;;;9.73;8.73;;;2.50;99.90;;;;;;942904;149;27451;-82
2023/12/19 04:05:03;;;;;;;10.17;8.87;;;2.50;99.90;;;;;;933188;149;27479;-81
2023/12/19 04:07:29;;;;;;;10.07;8.27;;;2.50;99.90;;;;;;944144;149;27300;-82
2023/12/19 04:09:56;;;;;;;12.40;9.17;;;2.60;99.90;;;;;;943100;149;27432;-82
2023/12/19 04:12:22;;;;;;;9.90;8.83;;;2.60;99.90;;;;;;943637;149;27328;-83
2023/12/19 04:14:49;;;;;;;13.33;9.53;;;2.60;99.90;;;;;;942582;149;27381;-82
2023/12/19 04:17:15;;;;;;;10.43;8.50;;;2.70;99.90;;;;;;947361;148;27492;-82
2023/12/19 04:19:42;;;;;;;12.83;9.27;;;2.70;99.90;;;;;;953665;148;27387;-82
2023/12/19 04:22:09;;;;;;;11.27;9.17;;;2.80;99.90;;;;;;956323;147;27439;-83
2023/12/19 04:24:35;;;;;;;8.83;7.93;;;2.80;99.90;;;;;;962089;147;27368;-83
2023/12/19 04:27:02;;;;;;;9.30;8.37;;;2.90;99.90;;;;;;959538;147;27449;-82
2023/12/19 04:29:28;;;;;;;9.70;8.73;;;2.90;99.90;;;;;;959519;147;27462;-82
2023/12/19 04:31:55;;;;;;;13.23;8.63;;;2.90;99.90;;;;;;949377;147;27278;-82
2023/12/19 04:34:22;;;;;;;11.23;8.97;;;3.00;99.90;;;;;;959781;144;27710;-85
2023/12/19 04:36:48;;;;;;;8.73;7.70;;;3.00;99.90;;;;;;959291;147;27433;-82
2023/12/19 04:39:15;;;;;;;9.67;8.67;;;3.00;99.90;;;;;;959415;147;27301;-82
2023/12/19 04:41:41;;;;;;;8.53;7.60;;;3.10;99.90;;;;;;957373;145;27280;-83
2023/12/19 04:44:08;;;;;;;9.33;7.97;;;3.10;99.90;;;;;;959580;147;27398;-84
2023/12/19 04:46:35;;;;;;;8.57;7.77;;;3.20;99.90;;;;;;959353;147;27368;-84
2023/12/19 04:49:01;;;;;;;11.17;9.03;;;3.20;99.90;;;;;;961260;147;27257;-83
2023/12/19 04:51:28;;;;;;;9.67;8.67;;;3.20;99.90;;;;;;958559;147;27302;-84
2023/12/19 04:53:54;;;;;;;11.03;9.33;;;3.30;99.90;;;;;;962651;147;27438;-82
2023/12/19 04:56:21;;;;;;;8.57;7.67;;;3.30;99.90;;;;;;961775;147;27434;-82
2023/12/19 04:58:47;;;;;;;9.87;8.87;;;3.40;99.90;;;;;;962842;147;27341;-82
2023/12/19 05:01:14;;;;;;;10.57;9.10;;;3.40;99.90;;;;;;958918;147;27294;-82
2023/12/19 05:03:41;;;;;;;11.13;9.00;;;3.40;99.90;;;;;;962978;147;27321;-82
2023/12/19 05:06:08;;;;;;;9.83;8.83;;;3.40;99.90;;;;;;961295;147;27412;-82
2023/12/19 05:08:34;;;;;;;10.40;9.30;;;3.50;99.90;;;;;;959850;145;27365;-83
2023/12/19 05:11:00;;;;;;;11.50;9.90;;;3.50;99.90;;;;;;949873;147;27364;-81
2023/12/19 05:13:27;;;;;;;10.77;9.43;;;3.60;99.90;;;;;;949317;149;27383;-82
2023/12/19 05:15:54;;;;;;;10.53;8.90;;;3.60;99.90;;;;;;952186;147;27384;-82
2023/12/19 05:18:20;;;;;;;9.30;8.30;;;3.60;99.90;;;;;;957225;147;27396;-81
2023/12/19 05:20:47;;;;;;;11.07;9.00;;;3.60;99.90;;;;;;934356;151;27448;-82
2023/12/19 05:23:13;;;;;;;11.57;9.40;;;3.60;99.90;;;;;;946455;149;27284;-82
2023/12/19 05:25:40;;;;;;;14.47;9.57;;;3.60;99.90;;;;;;942872;149;27327;-82
2023/12/19 05:28:06;;;;;;;11.83;9.70;;;3.60;99.90;;;;;;956982;147;27404;-82
2023/12/19 05:30:33;;;;;;;14.57;10.00;;;3.70;99.90;;;;;;916859;153;27422;-82
2023/12/19 05:33:00;;;;;;;14.37;10.40;;;3.70;99.90;;;;;;917703;153;27430;-82
2023/12/19 05:35:26;;;;;;;12.17;9.97;;;3.70;99.90;;;;;;933542;151;27302;-82
2023/12/19 05:37:53;;;;;;;13.27;10.47;;;3.70;99.90;;;;;;934194;151;27809;-82
2023/12/19 05:40:19;;;;;;;12.43;10.03;;;3.70;99.90;;;;;;919091;153;27490;-83
2023/12/19 05:42:46;;;;;;;13.23;9.80;;;3.70;99.90;;;;;;942815;149;28405;-82
2023/12/19 05:45:13;;;;;;;13.53;10.33;;;3.70;99.90;;;;;;947253;149;27330;-83
2023/12/19 05:47:39;;;;;;;12.33;9.30;;;3.70;99.90;;;;;;944158;149;27316;-83
2023/12/19 05:50:06;;;;;;;12.67;10.40;;;3.70;99.90;;;;;;946912;149;27408;-83
2023/12/19 05:52:32;;;;;;;13.37;10.13;;;3.70;99.90;;;;;;945009;149;27362;-85
2023/12/19 05:54:59;;;;;;;13.53;10.67;;;3.70;99.90;;;;;;946224;148;27391;-85
2023/12/19 05:57:26;;;;;;;13.33;10.97;;;3.80;99.90;;;;;;946537;149;27268;-85
2023/12/19 05:59:52;;;;;;;13.17;10.70;;;3.80;99.90;;;;;;946008;149;27365;-85
2023/12/19 06:02:20;;;;;;;14.93;11.10;;;3.90;99.90;;;;;;944336;149;27353;-84
2023/12/19 06:04:45;;;;;;;14.67;11.43;;;3.90;99.90;;;;;;947297;149;27989;-85
2023/12/19 06:07:12;;;;;;;13.73;11.10;;;4.00;99.90;;;;;;945838;149;27446;-85
2023/12/19 06:09:38;;;;;;;14.53;11.73;;;4.00;99.90;;;;;;945762;147;28111;-85
2023/12/19 06:12:06;;;;;;;14.03;11.17;;;4.10;99.90;;;;;;944781;149;27397;-84
2023/12/19 06:14:32;;;;;;;13.33;10.97;;;4.20;99.90;;;;;;961056;147;27367;-85
2023/12/19 06:16:58;;;;;;;14.47;11.23;;;4.20;99.90;;;;;;958548;147;27285;-85
2023/12/19 06:19:25;;;;;;;15.60;12.27;;;4.20;99.90;;;;;;959072;147;27430;-84
2023/12/19 06:21:52;;;;;;;17.13;12.93;;;4.30;99.90;;;;;;955772;147;27313;-85
2023/12/19 06:24:18;;;;;;;15.30;11.93;;;4.40;99.90;;;;;;957987;147;27840;-84
2023/12/19 06:26:45;;;;;;;13.53;11.43;;;4.40;99.90;;;;;;956320;147;27352;-84
2023/12/19 06:29:11;;;;;;;15.10;12.00;;;4.50;99.90;;;;;;959021;147;27393;-85
2023/12/19 06:31:44;;;;;;;13.30;11.63;;;4.50;99.90;;;;;;956206;147;27321;-84
2023/12/19 06:34:10;;;;;;;13.30;10.97;;;4.60;99.90;;;;;;955594;147;27416;-84
2023/12/19 06:36:41;;;;;;;13.03;11.03;;;4.60;99.90;;;;;;956067;147;28168;-84
2023/12/19 06:39:06;;;;;;;12.37;10.13;;;4.60;99.90;;;;;;948271;148;27378;-84
2023/12/19 06:41:33;;;;;;;13.80;10.77;;;4.70;99.90;;;;;;949192;148;27836;-85
2023/12/19 06:43:59;;;;;;;14.43;10.60;;;4.70;99.90;;;;;;954397;148;27365;-84
2023/12/19 06:46:26;;;;;;;13.23;11.00;;;4.70;99.90;;;;;;958324;148;27452;-84
2023/12/19 06:48:52;;;;;;;14.20;10.87;;;4.70;99.90;;;;;;953879;148;27283;-85
2023/12/19 06:51:25;;;;;;;12.90;10.53;;;4.70;99.90;;;;;;942063;149;27416;-85
2023/12/19 06:53:52;;;;;;;13.00;9.73;;;4.70;99.90;;;;;;953426;148;27732;-84
2023/12/19 06:56:18;;;;;;;12.77;10.07;;;4.80;99.90;;;;;;953829;148;27438;-85
2023/12/19 06:58:45;;;;;;;11.80;10.13;;;4.80;99.90;;;;;;926462;151;27339;-84
2023/12/19 07:01:11;;;;;;;12.47;10.03;;;4.80;99.90;;;;;;950083;148;27313;-88
2023/12/19 07:03:38;;;;;;;12.13;10.77;;;4.80;99.90;;;;;;953484;148;27355;-83
2023/12/19 07:06:05;;;;;;;11.23;9.93;;;4.80;99.90;;;;;;953815;148;27350;-83
2023/12/19 07:08:32;;;;;;;11.53;9.90;;;4.90;99.90;;;;;;954976;148;27939;-82
2023/12/19 07:10:58;;;;;;;12.13;10.33;;;4.90;99.90;;;;;;951425;148;27362;-83
2023/12/19 07:13:24;;;;;;;11.73;9.00;;;4.90;99.90;;;;;;951292;148;27350;-83
2023/12/19 07:15:51;;;;;;;11.37;10.17;;;4.90;99.90;;;;;;953673;148;27368;-83
2023/12/19 07:18:17;;;;;;;10.60;9.27;;;5.00;99.90;;;;;;953201;148;27426;-82
2023/12/19 07:20:44;;;;;;;11.47;9.33;;;5.00;99.90;;;;;;943611;147;28458;-83
2023/12/19 07:23:11;;;;;;;10.80;9.30;;;5.00;99.90;;;;;;948650;150;27406;-84
2023/12/19 07:25:37;;;;;;;11.40;9.50;;;5.00;99.90;;;;;;946824;150;27559;-85
2023/12/19 07:28:04;;;;;;;11.90;10.23;;;5.00;99.90;;;;;;946199;150;27367;-85
2023/12/19 07:30:30;;;;;;;11.33;9.67;;;5.00;99.90;;;;;;941276;150;27388;-85
2023/12/19 07:32:59;;;;;;;12.80;9.67;;;5.00;99.90;;;;;;938424;150;27291;-85
2023/12/19 07:35:24;;;;;;;11.63;9.53;;;5.10;99.90;;;;;;938915;149;27308;-85
2023/12/19 07:37:50;;;;;;;11.97;10.07;;;5.10;99.90;;;;;;948810;149;27408;-85
2023/12/19 07:40:17;;;;;;;10.90;9.37;;;5.10;99.90;;;;;;951009;149;27739;-85
2023/12/19 07:42:44;;;;;;;12.37;9.67;;;5.10;99.90;;;;;;949017;149;27313;-85
2023/12/19 07:45:10;;;;;;;11.50;10.00;;;5.10;99.90;;;;;;948262;149;27309;-85
2023/12/19 07:47:37;;;;;;;11.57;9.40;;;5.10;99.90;;;;;;946381;148;27416;-85
2023/12/19 07:50:03;;;;;;;13.77;10.17;;;5.20;99.90;;;;;;941281;150;27362;-85
2023/12/19 07:52:30;;;;;;;10.60;9.30;;;5.10;99.90;;;;;;941135;150;28474;-85
2023/12/19 07:54:56;;;;;;;11.00;9.10;;;5.10;99.90;;;;;;941069;149;27775;-85
2023/12/19 07:57:23;;;;;;;10.50;8.57;;;5.20;99.90;;;;;;943865;149;27388;-85
2023/12/19 07:59:49;;;;;;;10.53;9.43;;;5.20;99.90;;;;;;945930;149;27382;-85
2023/12/19 08:02:17;;;;;;;9.67;8.57;;;5.20;99.90;;;;;;947385;150;27450;-85
2023/12/19 08:04:43;;;;;;;10.40;8.90;;;5.20;99.90;;;;;;946946;149;27322;-85
2023/12/19 08:07:09;;;;;;;10.10;8.43;;;5.20;99.90;;;;;;949521;149;27348;-85
2023/12/19 08:09:36;;;;;;;11.17;8.83;;;5.20;99.90;;;;;;950232;147;27433;-85
2023/12/19 08:12:03;;;;;;;13.47;10.27;;;5.20;99.90;;;;;;928412;150;27357;-85
2023/12/19 08:14:29;;;;;;;12.10;10.80;;;5.30;99.90;;;;;;909104;153;27291;-85
2023/12/19 08:16:56;;;;;;;11.23;9.57;;;5.30;99.90;;;;;;921493;151;27329;-86
2023/12/19 08:19:22;;;;;;;13.50;10.30;;;5.30;99.90;;;;;;918674;152;27320;-85
2023/12/19 08:21:53;;;;;;;9.70;8.37;;;5.40;99.90;;;;;;943202;149;27463;-86
2023/12/19 08:24:21;;;;;;;11.23;9.20;;;5.40;99.90;;;;;;932983;150;27452;-85
2023/12/19 08:26:47;;;;;;;11.63;9.00;;;5.40;99.90;;;;;;941862;149;27357;-86
2023/12/19 08:29:13;;;;;;;10.23;8.87;;;5.40;99.90;;;;;;938976;149;27363;-85
2023/12/19 08:31:39;;;;;;;9.83;8.37;;;5.50;99.90;;;;;;943254;149;27311;-85
2023/12/19 08:34:06;;;;;;;10.80;9.30;;;5.50;99.90;;;;;;947238;149;27300;-86
2023/12/19 08:36:33;;;;;;;11.67;9.23;;;5.50;99.90;;;;;;944189;149;27314;-85
2023/12/19 08:38:59;;;;;;;11.33;8.97;;;5.50;99.90;;;;;;922509;152;27378;-86
2023/12/19 08:41:26;;;;;;;10.43;8.67;;;5.60;99.90;;;;;;943825;149;27268;-86
2023/12/19 08:43:52;;;;;;;11.63;9.93;;;5.60;99.90;;;;;;942055;149;27291;-85
2023/12/19 08:46:19;;;;;;;10.87;8.67;;;5.60;99.90;;;;;;946742;149;27332;-85
2023/12/19 08:48:46;;;;;;;10.50;9.17;;;5.60;99.90;;;;;;944509;149;27369;-83
2023/12/19 08:51:12;;;;;;;13.40;9.63;;;5.60;99.90;;;;;;903902;156;27428;-85
2023/12/19 08:53:39;;;;;;;10.57;8.57;;;5.70;99.90;;;;;;944062;149;27314;-85
2023/12/19 08:56:05;;;;;;;12.47;10.13;;;5.70;99.90;;;;;;944074;149;27275;-85
2023/12/19 08:58:32;;;;;;;10.77;9.07;;;5.70;99.90;;;;;;942846;149;27465;-84
2023/12/19 09:00:58;;;;;;;10.77;9.37;;;5.70;99.90;;;;;;903776;156;27398;-85
2023/12/19 09:03:25;;;;;;;12.33;9.57;;;5.70;99.90;;;;;;920315;153;27342;-85
2023/12/19 09:05:52;;;;;;;11.53;9.40;;;5.80;99.90;;;;;;901125;156;27370;-85
2023/12/19 09:08:18;;;;;;;12.97;10.40;;;5.70;99.90;;;;;;901062;156;27489;-85
2023/12/19 09:10:46;;;;;;;11.67;9.30;;;5.80;99.90;;;;;;951521;149;27368;-84
2023/12/19 09:13:11;;;;;;;11.27;9.00;;;5.80;99.90;;;;;;945429;149;27453;-85
2023/12/19 09:15:38;;;;;;;11.33;9.40;;;5.80;99.90;;;;;;942422;149;27312;-86
2023/12/19 09:18:05;;;;;;;11.73;9.37;;;5.80;99.90;;;;;;946323;149;27864;-85
2023/12/19 09:20:31;;;;;;;14.33;9.30;;;5.90;99.90;;;;;;947379;147;27495;-84
2023/12/19 09:22:58;;;;;;;11.87;9.03;;;5.90;99.90;;;;;;954816;148;27424;-82
2023/12/19 09:25:24;;;;;;;11.07;9.83;;;5.90;99.90;;;;;;953168;148;28444;-82
2023/12/19 09:27:51;;;;;;;11.07;9.43;;;5.90;99.90;;;;;;952837;148;27384;-82
2023/12/19 09:30:18;;;;;;;11.10;9.30;;;5.90;99.90;;;;;;953906;148;27312;-82
2023/12/19 09:32:44;;;;;;;12.33;9.83;;;5.90;99.90;;;;;;958055;148;27815;-83
2023/12/19 09:35:11;;;;;;;12.63;9.90;;;5.90;99.90;;;;;;956837;148;27364;-82
2023/12/19 09:37:38;;;;;;;11.07;9.40;;;5.90;99.90;;;;;;955136;148;27307;-82
2023/12/19 09:40:04;;;;;;;11.87;9.63;;;6.00;99.90;;;;;;956731;148;27304;-83
2023/12/19 09:42:31;;;;;;;13.63;10.27;;;5.90;99.90;;;;;;952829;148;27418;-83
2023/12/19 09:44:57;;;;;;;11.87;9.57;;;5.90;99.90;;;;;;952481;146;27339;-82
2023/12/19 09:47:24;;;;;;;11.57;9.27;;;6.00;99.90;;;;;;952733;148;27377;-82
2023/12/19 09:49:53;;;;;;;11.63;9.13;;;6.00;99.90;;;;;;951108;148;27273;-82
2023/12/19 09:52:22;;;;;;;10.07;8.53;;;5.90;99.90;;;;;;953660;148;27291;-82
2023/12/19 09:54:50;;;;;;;10.67;9.10;;;5.90;99.90;;;;;;953470;148;27446;-82
2023/12/19 09:57:16;;;;;;;11.47;9.33;;;5.90;99.90;;;;;;954251;148;27395;-83
2023/12/19 09:59:43;;;;;;;10.67;9.03;;;5.90;99.90;;;;;;953772;148;27272;-82
2023/12/19 10:02:09;;;;;;;14.53;9.90;;;5.90;99.90;;;;;;953544;146;27488;-83
2023/12/19 10:04:35;;;;;;;10.77;9.03;;;5.90;99.90;;;;;;952669;148;27458;-82
2023/12/19 10:07:02;;;;;;;10.80;9.60;;;5.90;99.90;;;;;;952723;148;27287;-83
2023/12/19 10:09:28;;;;;;;10.23;9.13;;;5.90;99.90;;;;;;953088;147;27295;-83
2023/12/19 10:12:07;;;;;;;10.97;8.47;;;6.00;99.90;;;;;;954400;148;27327;-82
2023/12/19 10:14:34;;;;;;;11.10;9.57;;;5.90;99.90;;;;;;951239;148;27339;-83
2023/12/19 10:17:00;;;;;;;11.20;9.17;;;6.00;99.90;;;;;;953197;148;27367;-83
2023/12/19 10:19:28;;;;;;;11.63;9.47;;;6.00;99.90;;;;;;952980;148;27401;-83
2023/12/19 10:22:06;;;;;;;9.70;8.20;;;6.00;99.90;;;;;;948543;148;27534;-83
2023/12/19 10:24:32;;;;;;;12.83;9.60;;;6.00;99.90;;;;;;945070;149;27441;-82
2023/12/19 10:27:00;;;;;;;11.80;8.93;;;6.00;99.90;;;;;;945170;149;27903;-82
2023/12/19 10:29:25;;;;;;;10.27;8.70;;;6.00;99.90;;;;;;944858;149;27456;-81
2023/12/19 10:31:55;;;;;;;11.57;9.47;;;6.00;99.90;;;;;;944097;149;27319;-85
2023/12/19 10:34:19;;;;;;;11.93;9.23;;;6.00;99.90;;;;;;943334;149;27300;-83
2023/12/19 10:36:45;;;;;;;10.20;8.37;;;6.00;99.90;;;;;;945941;149;27306;-83
2023/12/19 10:39:12;;;;;;;11.33;8.63;;;6.00;99.90;;;;;;944234;149;27457;-83
2023/12/19 10:41:38;;;;;;;11.97;8.80;;;6.10;99.90;;;;;;920663;152;27427;-83
2023/12/19 10:44:05;;;;;;;10.63;9.03;;;6.10;99.90;;;;;;906692;155;27874;-83
2023/12/19 10:46:32;;;;;;;10.77;8.47;;;6.10;99.90;;;;;;907270;155;27350;-83
2023/12/19 10:49:01;;;;;;;9.63;8.37;;;6.10;99.90;;;;;;944237;149;27854;-83
2023/12/19 10:51:32;;;;;;;12.20;9.03;;;6.10;99.90;;;;;;942990;149;27487;-83
2023/12/19 10:53:58;;;;;;;8.90;8.00;;;6.10;99.90;;;;;;944221;149;27448;-83
2023/12/19 10:56:24;;;;;;;10.40;8.07;;;6.10;99.90;;;;;;947753;149;27385;-83
2023/12/19 10:58:50;;;;;;;10.83;8.17;;;6.20;99.90;;;;;;946765;149;27344;-83
2023/12/19 11:01:17;;;;;;;8.57;7.67;;;6.20;99.90;;;;;;941957;149;27346;-83
2023/12/19 11:03:43;;;;;;;9.97;8.20;;;6.20;99.90;;;;;;944252;149;27368;-83
2023/12/19 11:06:10;;;;;;;10.23;8.00;;;6.20;99.90;;;;;;946306;149;27392;-84
2023/12/19 11:08:36;;;;;;;9.93;7.80;;;6.30;99.90;;;;;;944695;148;27348;-83
2023/12/19 11:11:03;;;;;;;9.83;7.87;;;6.40;99.90;;;;;;945093;149;27383;-83
2023/12/19 11:13:31;;;;;;;8.07;7.17;;;6.40;99.90;;;;;;923172;152;27379;-83
2023/12/19 11:15:56;;;;;;;10.40;7.80;;;6.50;99.90;;;;;;940104;149;27283;-83
2023/12/19 11:18:38;;;;;;;9.50;8.23;;;6.60;99.90;;;;;;943516;149;27308;-84
2023/12/19 11:21:05;;;;;;;8.30;7.37;;;6.70;99.90;;;;;;942331;149;27452;-84
2023/12/19 11:23:43;;;;;;;9.93;8.03;;;6.70;99.90;;;;;;940545;150;27287;-84
2023/12/19 11:26:09;;;;;;;9.60;8.40;;;6.80;99.90;;;;;;943211;150;27706;-84
2023/12/19 11:28:40;;;;;;;9.70;7.73;;;6.90;99.90;;;;;;940151;150;27328;-82
2023/12/19 11:31:05;;;;;;;7.70;6.97;;;6.90;99.90;;;;;;945300;149;27770;-83
2023/12/19 11:33:37;;;;;;;9.17;7.80;;;7.00;99.90;;;;;;939556;149;27436;-83
2023/12/19 11:36:13;;;;;;;8.43;7.53;;;7.00;99.90;;;;;;945485;149;27384;-83
2023/12/19 11:38:37;;;;;;;8.27;7.20;;;7.00;99.90;;;;;;942101;149;27289;-84
2023/12/19 11:41:04;;;;;;;9.07;7.50;;;7.10;99.90;;;;;;946277;149;27379;-83
2023/12/19 11:43:31;;;;;;;7.93;7.13;;;7.10;99.90;;;;;;945133;149;27328;-83
2023/12/19 11:46:11;;;;;;;8.73;7.23;;;7.10;99.90;;;;;;944558;150;27289;-83
2023/12/19 11:48:38;;;;;;;8.10;7.30;;;7.20;99.90;;;;;;944374;150;27307;-83
2023/12/19 11:51:04;;;;;;;8.47;7.33;;;7.20;99.90;;;;;;945691;150;27472;-83
2023/12/19 11:53:31;;;;;;;7.30;6.43;;;7.20;99.90;;;;;;900192;155;27412;-83
2023/12/19 11:56:08;;;;;;;7.10;6.03;;;7.20;99.90;;;;;;922832;152;27372;-82
2023/12/19 11:58:33;;;;;;;7.27;6.50;;;7.20;99.90;;;;;;939662;149;27347;-83
2023/12/19 12:00:59;;;;;;;8.83;7.47;;;7.30;99.90;;;;;;933680;150;27444;-83
2023/12/19 12:03:26;;;;;;;8.53;7.10;;;7.20;99.90;;;;;;945533;150;28001;-83
2023/12/19 12:05:52;;;;;;;7.40;6.50;;;7.30;99.90;;;;;;942936;149;27340;-83
2023/12/19 12:08:19;;;;;;;7.47;6.70;;;7.30;99.90;;;;;;943148;149;27273;-85
2023/12/19 12:10:58;;;;;;;8.43;6.57;;;7.30;99.90;;;;;;942582;149;27373;-83
2023/12/19 12:13:24;;;;;;;7.83;6.23;;;7.30;99.90;;;;;;905386;155;27491;-83
2023/12/19 12:15:54;;;;;;;7.60;6.80;;;7.30;99.90;;;;;;905475;155;27511;-83
2023/12/19 12:18:20;;;;;;;7.40;6.60;;;7.30;99.90;;;;;;904688;155;27413;-83
2023/12/19 12:20:47;;;;;;;9.43;7.30;;;7.30;99.90;;;;;;905116;154;27441;-83
2023/12/19 12:23:14;;;;;;;8.57;7.13;;;7.30;99.90;;;;;;913710;154;27460;-83
2023/12/19 12:25:40;;;;;;;7.53;6.13;;;7.30;99.90;;;;;;934930;151;27384;-83
2023/12/19 12:28:09;;;;;;;6.90;6.20;;;7.40;99.90;;;;;;941335;150;27308;-83
2023/12/19 12:30:36;;;;;;;7.03;6.30;;;7.40;99.90;;;;;;928059;151;27381;-83
2023/12/19 12:33:03;;;;;;;7.30;6.60;;;7.40;99.90;;;;;;930579;148;27447;-83
2023/12/19 12:35:31;;;;;;;6.87;5.47;;;7.40;99.90;;;;;;931010;148;27281;-83
2023/12/19 12:37:58;;;;;;;7.40;6.33;;;7.40;99.90;;;;;;938356;150;27897;-83
2023/12/19 12:40:26;;;;;;;7.83;6.20;;;7.40;99.90;;;;;;936799;150;27358;-83
2023/12/19 12:42:51;;;;;;;6.50;5.37;;;7.40;99.90;;;;;;937503;150;27466;-83
2023/12/19 12:45:18;;;;;;;6.73;6.03;;;7.50;99.90;;;;;;938418;150;27250;-83
2023/12/19 12:47:45;;;;;;;7.03;6.23;;;7.50;99.90;;;;;;937365;150;27390;-83